Time;durP1;ratioP1;P1;durP2;ratioP2;P2;SDS_P1;SDS_P2;PMS_P1;PMS_P2;Temp;Humidity;BMP_temperature;BMP_pressure;BME280_temperature;BME280_humidity;BME280_pressure;Samples;Min_cycle;Max_cycle;Signal;HPM_P1;HPM_P2
2024/04/12 00:02:09;;;;;;;8.55;4.82;;;;;;;16.28;64.38;101558.78;5525510;25;20030;-53
2024/04/12 00:04:40;;;;;;;9.13;4.47;;;;;;;16.47;64.00;101555.78;5526263;25;20482;-54
2024/04/12 00:07:13;;;;;;;9.40;4.60;;;;;;;16.49;64.56;101559.25;5525979;25;20007;-53
2024/04/12 00:09:54;;;;;;;8.82;4.70;;;;;;;16.45;64.34;101556.84;5525765;25;20391;-51
2024/04/12 00:12:26;;;;;;;9.15;5.00;;;;;;;16.36;64.92;101563.69;5525621;25;20005;-53
2024/04/12 00:15:15;;;;;;;8.52;4.70;;;;;;;16.29;65.17;101567.72;5525442;25;19997;-53
2024/04/12 00:17:45;;;;;;;8.05;5.13;;;;;;;16.07;65.60;101561.97;5525553;25;20104;-51
2024/04/12 00:20:18;;;;;;;10.88;5.22;;;;;;;16.01;66.05;101557.81;5525471;25;19993;-49
2024/04/12 00:22:48;;;;;;;9.48;5.28;;;;;;;16.14;66.06;101555.25;5525297;25;20008;-50
2024/04/12 00:25:21;;;;;;;9.25;4.93;;;;;;;16.34;65.01;101559.38;5525240;25;19994;-51
2024/04/12 00:27:50;;;;;;;9.68;5.28;;;;;;;16.34;64.87;101560.25;5525239;25;19993;-50
2024/04/12 00:30:37;;;;;;;9.52;4.95;;;;;;;16.46;64.94;101555.91;5525328;25;19993;-50
2024/04/12 00:33:09;;;;;;;9.25;4.72;;;;;;;16.53;65.09;101546.47;5524837;25;20061;-53
2024/04/12 00:35:45;;;;;;;8.50;4.95;;;;;;;16.40;65.20;101543.66;5524962;25;20034;-54
2024/04/12 00:38:16;;;;;;;8.10;5.03;;;;;;;16.33;66.21;101554.97;5525282;25;19997;-53
2024/04/12 00:40:52;;;;;;;8.68;4.78;;;;;;;16.35;65.86;101550.34;5525215;25;19997;-52
2024/04/12 00:43:20;;;;;;;10.18;5.00;;;;;;;16.29;65.90;101541.66;5524925;25;20001;-52
2024/04/12 00:45:54;;;;;;;9.95;5.05;;;;;;;16.28;65.89;101542.63;5524594;25;20004;-55
2024/04/12 00:48:21;;;;;;;;;;;;;;;16.37;64.91;101538.50;5525453;25;20442;-52
2024/04/12 00:50:53;;;;;;;8.80;5.05;;;;;;;16.42;65.08;101525.63;5524713;25;19952;-55
2024/04/12 00:53:22;;;;;;;9.20;4.97;;;;;;;16.46;65.25;101532.53;5524571;25;19998;-52
2024/04/12 00:56:00;;;;;;;9.40;4.90;;;;;;;16.48;65.28;101530.59;5524545;25;20004;-54
2024/04/12 00:58:32;;;;;;;7.22;4.45;;;;;;;16.47;65.10;101530.69;5524642;25;20127;-53
2024/04/12 01:01:11;;;;;;;10.27;5.05;;;;;;;16.43;65.45;101530.03;5524775;25;20001;-53
2024/04/12 01:03:45;;;;;;;9.32;5.28;;;;;;;16.35;65.38;101523.41;5524650;25;20002;-52
2024/04/12 01:06:18;;;;;;;11.32;5.32;;;;;;;16.33;65.27;101525.34;5524127;25;20113;-53
2024/04/12 01:08:46;;;;;;;11.67;5.87;;;;;;;16.26;65.88;101519.47;5524606;25;20069;-54
2024/04/12 01:11:22;;;;;;;9.82;5.07;;;;;;;16.10;65.53;101534.84;5524694;25;19989;-53
2024/04/12 01:13:52;;;;;;;8.15;5.30;;;;;;;16.24;65.73;101529.47;5524579;25;20008;-52
2024/04/12 01:16:24;;;;;;;8.35;5.38;;;;;;;16.12;65.77;101533.81;5524346;25;19997;-51
2024/04/12 01:18:55;;;;;;;10.43;5.20;;;;;;;16.17;65.95;101541.59;5524823;25;20097;-50
2024/04/12 01:21:26;;;;;;;11.20;5.78;;;;;;;15.97;67.07;101538.31;5524476;25;19994;-53
2024/04/12 01:23:54;;;;;;;9.30;5.50;;;;;;;16.03;66.81;101539.78;5524652;25;19997;-51
2024/04/12 01:26:27;;;;;;;8.95;5.10;;;;;;;15.84;67.25;101540.06;5524086;25;20066;-54
2024/04/12 01:28:56;;;;;;;8.00;4.93;;;;;;;15.90;67.39;101538.78;5524162;25;20391;-54
2024/04/12 01:31:27;;;;;;;8.65;5.65;;;;;;;16.03;66.74;101543.34;5524308;25;20361;-51
2024/04/12 01:33:55;;;;;;;9.02;5.15;;;;;;;15.93;67.43;101539.50;5524057;25;20004;-50
2024/04/12 01:36:26;;;;;;;9.20;5.05;;;;;;;16.03;67.08;101545.16;5524094;25;20004;-52
2024/04/12 01:38:57;;;;;;;8.65;5.25;;;;;;;16.03;66.70;101539.78;5524888;25;20009;-51
2024/04/12 01:41:31;;;;;;;11.32;5.85;;;;;;;16.01;66.83;101542.53;5524146;25;19994;-51
2024/04/12 01:44:06;;;;;;;10.75;5.60;;;;;;;15.82;67.92;101541.94;5524143;25;19997;-49
2024/04/12 01:46:37;;;;;;;11.95;5.88;;;;;;;15.70;68.43;101548.09;5524140;25;20038;-50
2024/04/12 01:49:10;;;;;;;11.05;5.70;;;;;;;15.74;68.35;101546.97;5526552;25;19997;-54
2024/04/12 01:51:41;;;;;;;9.00;5.50;;;;;;;15.78;68.82;101548.50;5528022;25;19998;-53
2024/04/12 01:54:13;;;;;;;9.32;5.60;;;;;;;15.86;68.45;101548.91;5526137;25;20287;-53
2024/04/12 01:56:52;;;;;;;10.73;5.20;;;;;;;15.90;69.04;101555.81;5524374;25;20000;-54
2024/04/12 01:59:21;;;;;;;8.93;5.57;;;;;;;15.85;67.91;101559.75;5524143;25;20012;-54
2024/04/12 02:01:53;;;;;;;8.63;5.90;;;;;;;15.79;68.29;101558.28;5523742;25;19998;-55
2024/04/12 02:04:21;;;;;;;12.48;6.35;;;;;;;15.71;68.17;101560.59;5524085;25;20008;-54
2024/04/12 02:06:53;;;;;;;11.65;5.95;;;;;;;15.71;68.47;101558.75;5525120;25;19994;-55
2024/04/12 02:09:21;;;;;;;8.93;5.28;;;;;;;15.65;68.73;101556.47;5524404;25;19998;-52
2024/04/12 02:11:57;;;;;;;10.35;5.68;;;;;;;15.61;68.67;101559.41;5523639;25;19993;-53
2024/04/12 02:14:25;;;;;;;9.85;5.78;;;;;;;15.46;70.24;101556.66;5523387;25;20005;-53
2024/04/12 02:16:55;;;;;;;8.88;5.68;;;;;;;15.49;70.16;101555.63;5521898;25;19994;-55
2024/04/12 02:19:24;;;;;;;8.52;5.97;;;;;;;15.53;70.39;101561.66;5523626;25;20315;-53
2024/04/12 02:21:54;;;;;;;10.23;5.80;;;;;;;15.53;70.31;101564.34;5523222;25;19997;-51
2024/04/12 02:24:23;;;;;;;8.70;5.75;;;;;;;15.41;70.94;101564.13;5523397;25;20053;-50
2024/04/12 02:26:57;;;;;;;11.20;6.18;;;;;;;15.49;70.35;101565.50;5523317;25;20001;-51
2024/04/12 02:29:24;;;;;;;;;;;;;;;15.39;71.32;101566.06;5523787;25;20004;-52
2024/04/12 02:31:55;;;;;;;12.02;6.45;;;;;;;15.37;71.08;101567.97;5523325;25;19924;-49
2024/04/12 02:34:24;;;;;;;13.07;6.43;;;;;;;15.36;70.79;101571.63;5523057;25;20005;-52
2024/04/12 02:37:01;;;;;;;10.93;6.28;;;;;;;15.18;71.27;101580.75;5522982;25;20073;-53
2024/04/12 02:39:30;;;;;;;9.90;6.05;;;;;;;15.02;72.47;101571.84;5522827;25;20503;-53
2024/04/12 02:42:05;;;;;;;11.48;6.28;;;;;;;15.18;72.33;101578.06;5522943;25;19993;-52
2024/04/12 02:44:33;;;;;;;13.23;6.20;;;;;;;15.30;71.60;101580.03;5523011;25;20037;-52
2024/04/12 02:47:04;;;;;;;10.13;6.10;;;;;;;14.91;72.73;101579.66;5523008;25;20004;-52
2024/04/12 02:49:33;;;;;;;11.02;6.45;;;;;;;14.97;73.07;101577.50;5523234;25;20012;-52
2024/04/12 02:52:03;;;;;;;9.82;6.60;;;;;;;14.99;73.14;101585.47;5522888;25;20097;-53
2024/04/12 02:54:31;;;;;;;10.73;7.05;;;;;;;14.84;73.29;101582.69;5523019;25;20004;-52
2024/04/12 02:57:04;;;;;;;9.35;6.13;;;;;;;14.92;73.29;101586.78;5523017;25;19997;-53
2024/04/12 02:59:34;;;;;;;13.07;6.25;;;;;;;14.81;73.39;101590.94;5523110;25;20007;-50
2024/04/12 03:02:05;;;;;;;9.95;6.22;;;;;;;14.86;73.95;101587.97;5522212;25;20005;-52
2024/04/12 03:04:33;;;;;;;13.57;6.57;;;;;;;14.83;74.38;101585.47;5522728;25;20031;-53
2024/04/12 03:07:09;;;;;;;14.15;7.15;;;;;;;14.94;73.96;101588.41;5522658;25;20009;-52
2024/04/12 03:09:40;;;;;;;12.82;6.85;;;;;;;14.89;74.18;101588.69;5522501;25;20473;-52
2024/04/12 03:12:13;;;;;;;12.45;6.45;;;;;;;14.72;75.17;101586.06;5522285;25;20458;-51
2024/04/12 03:14:41;;;;;;;12.38;7.05;;;;;;;14.71;75.19;101597.78;5522417;25;19993;-53
2024/04/12 03:17:12;;;;;;;10.80;6.75;;;;;;;14.82;75.28;101591.81;5522109;25;20004;-52
2024/04/12 03:19:41;;;;;;;9.95;6.75;;;;;;;14.88;74.78;101596.84;5522287;25;20418;-51
2024/04/12 03:22:11;;;;;;;13.07;7.22;;;;;;;14.67;75.85;101588.19;5522248;25;19998;-55
2024/04/12 03:24:38;;;;;;;12.48;7.47;;;;;;;14.67;75.83;101593.53;5522042;25;19997;-52
2024/04/12 03:27:11;;;;;;;12.02;7.45;;;;;;;14.82;75.72;101597.16;5522343;25;20065;-52
2024/04/12 03:29:41;;;;;;;12.18;7.55;;;;;;;14.58;77.05;101602.13;5525011;25;20069;-53
2024/04/12 03:32:12;;;;;;;12.63;7.65;;;;;;;14.69;76.68;101591.63;5525870;25;20013;-54
2024/04/12 03:34:40;;;;;;;11.73;7.25;;;;;;;14.79;76.38;101603.59;5525688;25;19997;-52
2024/04/12 03:37:23;;;;;;;12.77;8.40;;;;;;;14.73;75.97;101601.25;5525664;25;20004;-52
2024/04/12 03:40:00;;;;;;;12.85;7.90;;;;;;;14.79;76.66;101608.97;5525595;25;20001;-52
2024/04/12 03:42:31;;;;;;;17.52;7.90;;;;;;;14.79;76.42;101605.41;5525628;25;20006;-54
2024/04/12 03:45:12;;;;;;;10.80;7.72;;;;;;;14.90;76.20;101611.03;5525948;25;19997;-53
2024/04/12 03:47:44;;;;;;;13.13;7.75;;;;;;;15.03;74.98;101608.50;5525453;25;19997;-52
2024/04/12 03:50:15;;;;;;;10.27;7.40;;;;;;;14.95;75.27;101614.31;5525643;25;20029;-53
2024/04/12 03:52:48;;;;;;;16.75;8.85;;;;;;;14.93;75.19;101620.75;5525439;25;20066;-52
2024/04/12 03:55:18;;;;;;;11.43;7.55;;;;;;;15.09;75.38;101627.84;5525048;25;20104;-50
2024/04/12 03:57:51;;;;;;;14.60;8.02;;;;;;;15.20;74.34;101623.66;5525339;25;20001;-50
2024/04/12 04:00:24;;;;;;;14.93;7.60;;;;;;;15.18;74.29;101627.31;5525366;25;20009;-50
2024/04/12 04:02:54;;;;;;;14.60;8.38;;;;;;;15.11;74.77;101625.06;5525077;25;20073;-51
2024/04/12 04:05:29;;;;;;;14.85;8.25;;;;;;;14.86;76.32;101621.09;5525088;25;20008;-53
2024/04/12 04:07:57;;;;;;;12.90;8.52;;;;;;;14.94;76.28;101620.66;5524760;25;20468;-49
2024/04/12 04:10:31;;;;;;;12.65;8.73;;;;;;;14.94;76.18;101627.84;5524991;25;20061;-50
2024/04/12 04:13:03;;;;;;;13.00;8.20;;;;;;;15.07;75.29;101621.69;5524912;25;20026;-55
2024/04/12 04:15:38;;;;;;;14.00;8.93;;;;;;;15.17;75.64;101624.72;5525186;25;20008;-52
2024/04/12 04:18:10;;;;;;;15.27;9.23;;;;;;;15.17;74.63;101625.59;5525140;25;19994;-50
2024/04/12 04:20:42;;;;;;;14.63;9.18;;;;;;;15.17;75.63;101624.72;5525172;25;19993;-49
2024/04/12 04:23:10;;;;;;;16.13;8.70;;;;;;;15.22;74.66;101622.63;5525066;25;20004;-49
2024/04/12 04:25:44;;;;;;;18.63;8.57;;;;;;;15.13;76.05;101623.16;5525355;25;20008;-53
2024/04/12 04:28:11;;;;;;;18.98;10.15;;;;;;;15.14;75.70;101624.88;5525077;25;20013;-54
2024/04/12 04:30:45;;;;;;;18.75;9.93;;;;;;;15.01;76.83;101630.09;5525242;25;20001;-50
2024/04/12 04:33:12;;;;;;;15.20;9.43;;;;;;;15.12;76.19;101629.47;5525112;25;20021;-52
2024/04/12 04:35:44;;;;;;;14.85;9.30;;;;;;;15.12;75.81;101633.03;5524847;25;19997;-50
2024/04/12 04:38:16;;;;;;;13.23;9.07;;;;;;;15.21;75.77;101631.66;5525196;25;20005;-52
2024/04/12 04:40:52;;;;;;;15.60;8.38;;;;;;;15.31;75.28;101630.16;5523866;25;20070;-48
2024/04/12 04:43:23;;;;;;;13.75;8.32;;;;;;;15.31;74.54;101627.47;5527164;25;19997;-54
2024/04/12 04:45:59;;;;;;;13.75;8.05;;;;;;;15.38;75.42;101627.97;5528645;25;20005;-52
2024/04/12 04:48:26;;;;;;;14.45;8.05;;;;;;;15.41;74.38;101631.34;5528114;25;20046;-55
2024/04/12 04:50:59;;;;;;;13.93;8.38;;;;;;;15.48;75.04;101634.56;5527939;25;20005;-52
2024/04/12 04:53:29;;;;;;;12.15;8.00;;;;;;;15.50;74.64;101619.19;5526521;25;19993;-53
2024/04/12 04:56:01;;;;;;;15.32;8.38;;;;;;;15.59;74.27;101625.84;5524322;25;19997;-51
2024/04/12 04:58:29;;;;;;;16.50;8.80;;;;;;;15.62;74.56;101626.56;5524741;25;20064;-57
2024/04/12 05:01:04;;;;;;;15.18;8.35;;;;;;;15.63;74.26;101627.41;5525106;25;20473;-56
2024/04/12 05:03:36;;;;;;;17.02;8.77;;;;;;;15.76;73.45;101627.56;5524644;25;20005;-55
2024/04/12 05:06:07;;;;;;;15.00;8.80;;;;;;;15.94;73.00;101630.03;5524518;25;20430;-54
2024/04/12 05:08:35;;;;;;;15.43;8.55;;;;;;;16.07;72.20;101640.03;5524820;25;20391;-55
2024/04/12 05:11:06;;;;;;;16.73;8.65;;;;;;;16.17;72.16;101635.81;5524647;25;20021;-54
2024/04/12 05:13:37;;;;;;;15.63;8.68;;;;;;;16.33;70.85;101627.66;5524590;25;19993;-53
2024/04/12 05:16:15;;;;;;;14.00;8.90;;;;;;;16.51;70.71;101638.13;5524440;25;20446;-57
2024/04/12 05:18:48;;;;;;;17.20;9.00;;;;;;;16.65;69.85;101639.09;5524274;25;20076;-51
2024/04/12 05:21:16;;;;;;;13.80;8.27;;;;;;;16.78;69.04;101645.44;5524530;25;20061;-51
2024/04/12 05:23:47;;;;;;;14.65;9.10;;;;;;;16.94;69.12;101643.50;5524072;25;20007;-53
2024/04/12 05:26:15;;;;;;;17.92;8.77;;;;;;;17.00;68.51;101640.41;5524413;25;20519;-56
2024/04/12 05:28:47;;;;;;;17.95;9.27;;;;;;;17.11;68.12;101637.88;5524506;25;19993;-52
2024/04/12 05:31:19;;;;;;;17.58;9.38;;;;;;;17.16;67.07;101634.88;5524063;25;19994;-56
2024/04/12 05:33:50;;;;;;;;;;;;;;;17.24;67.38;101642.47;5525472;25;20021;-54
2024/04/12 05:36:20;;;;;;;17.38;9.00;;;;;;;17.21;66.76;101639.97;5524442;25;19923;-55
2024/04/12 05:38:52;;;;;;;19.42;8.82;;;;;;;17.33;65.95;101649.94;5524133;25;20048;-57
2024/04/12 05:41:19;;;;;;;16.42;9.20;;;;;;;17.31;66.41;101658.13;5499131;25;20018;-54
2024/04/12 05:43:50;;;;;;;23.75;11.10;;;;;;;17.52;65.86;101663.06;5523485;25;20005;-53
2024/04/12 05:46:22;;;;;;;18.58;10.30;;;;;;;17.76;64.82;101671.34;5523449;25;20005;-53
2024/04/12 05:48:52;;;;;;;20.02;10.10;;;;;;;17.95;63.50;101682.63;5523005;25;20406;-52
2024/04/12 05:51:19;;;;;;;17.42;9.05;;;;;;;17.96;63.20;101679.00;5522578;25;20001;-56
2024/04/12 05:53:53;;;;;;;17.17;8.85;;;;;;;17.96;63.11;101685.25;5523302;25;19993;-54
2024/04/12 05:56:21;;;;;;;15.40;8.65;;;;;;;17.92;61.61;101686.41;5523724;25;19997;-52
2024/04/12 05:58:52;;;;;;;14.30;8.60;;;;;;;17.96;61.74;101689.78;5497903;25;20001;-56
2024/04/12 06:01:24;;;;;;;13.40;7.70;;;;;;;18.13;61.48;101681.38;5486309;26;19998;-52
2024/04/12 06:03:56;;;;;;;;;;;;;;;18.11;60.78;101683.31;5487470;26;20013;-50
2024/04/12 06:06:24;;;;;;;14.27;7.72;;;;;;;18.13;60.55;101689.47;5486882;26;19992;-54
2024/04/12 06:08:58;;;;;;;15.85;8.48;;;;;;;18.22;60.23;101691.53;5486515;26;19994;-51
2024/04/12 06:11:26;;;;;;;16.00;7.93;;;;;;;18.10;58.75;101692.38;5486237;26;20098;-53
2024/04/12 06:14:01;;;;;;;13.90;7.47;;;;;;;17.92;59.68;101690.94;5486556;26;19994;-53
2024/04/12 06:16:31;;;;;;;16.05;8.07;;;;;;;18.14;59.10;101684.94;5486300;26;20008;-53
2024/04/12 06:19:02;;;;;;;14.52;8.25;;;;;;;18.39;59.44;101686.78;5486327;26;20024;-51
2024/04/12 06:21:30;;;;;;;13.68;8.27;;;;;;;18.43;58.78;101682.88;5486767;26;20101;-49
2024/04/12 06:24:08;;;;;;;14.70;8.15;;;;;;;18.56;57.69;101689.19;5486882;26;20030;-52
2024/04/12 06:26:40;;;;;;;11.25;7.75;;;;;;;18.52;57.96;101687.66;5486687;26;20001;-54
2024/04/12 06:29:16;;;;;;;11.48;8.10;;;;;;;18.62;57.51;101693.25;5485932;26;19998;-51
2024/04/12 06:31:58;;;;;;;12.05;8.32;;;;;;;18.80;56.18;101681.16;5484882;26;20293;-49
2024/04/12 06:34:28;;;;;;;13.77;8.32;;;;;;;19.00;56.16;101685.13;5485709;26;20026;-52
2024/04/12 06:37:05;;;;;;;15.35;8.98;;;;;;;18.81;55.74;101685.59;5486255;26;20009;-53
2024/04/12 06:39:37;;;;;;;15.77;9.38;;;;;;;18.25;57.93;101683.22;5485898;25;20018;-55
2024/04/12 06:42:08;;;;;;;16.85;8.90;;;;;;;18.35;57.62;101679.88;5485882;26;19998;-51
2024/04/12 06:44:42;;;;;;;15.73;8.77;;;;;;;18.24;58.19;101683.34;5485917;26;20026;-54
2024/04/12 06:47:18;;;;;;;14.90;9.38;;;;;;;18.39;57.25;101684.09;5491039;26;20017;-54
2024/04/12 06:49:49;;;;;;;17.30;9.10;;;;;;;18.77;56.78;101690.38;5485924;26;20067;-52
2024/04/12 06:52:20;;;;;;;14.85;8.13;;;;;;;18.99;56.59;101692.38;5485701;26;19998;-51
2024/04/12 06:54:52;;;;;;;21.33;9.15;;;;;;;19.08;55.10;101697.13;5486138;26;19998;-52
2024/04/12 06:57:21;;;;;;;15.55;8.70;;;;;;;19.05;54.76;101691.06;5486195;26;19998;-52
2024/04/12 06:59:58;;;;;;;19.45;9.45;;;;;;;19.40;54.42;101686.66;5491605;26;20021;-54
2024/04/12 07:02:29;;;;;;;15.55;8.43;;;;;;;18.98;55.78;101689.78;5500138;26;20038;-50
2024/04/12 07:05:05;;;;;;;13.73;8.30;;;;;;;19.32;54.96;101689.06;5507117;26;20005;-54
2024/04/12 07:07:33;;;;;;;13.07;7.50;;;;;;;19.52;53.82;101686.69;5495898;25;20013;-51
2024/04/12 07:10:09;;;;;;;12.88;7.38;;;;;;;19.67;53.97;101688.25;5489306;26;19998;-52
2024/04/12 07:12:38;;;;;;;11.38;7.63;;;;;;;19.59;53.07;101693.38;5500561;26;20467;-53
2024/04/12 07:15:09;;;;;;;11.38;7.45;;;;;;;19.64;52.27;101683.09;5498769;26;20535;-52
2024/04/12 07:17:41;;;;;;;12.70;7.75;;;;;;;19.74;51.98;101684.13;5489392;26;20077;-50
2024/04/12 07:20:14;;;;;;;13.38;7.93;;;;;;;19.75;52.19;101677.72;5489305;26;20002;-51
2024/04/12 07:22:42;;;;;;;12.98;7.53;;;;;;;19.17;54.10;101684.75;5523208;26;20012;-53
2024/04/12 07:25:15;;;;;;;14.10;7.35;;;;;;;19.12;54.58;101693.22;5526218;25;20012;-51
2024/04/12 07:27:47;;;;;;;11.65;7.22;;;;;;;19.54;54.35;101687.44;5526314;25;20008;-52
2024/04/12 07:30:20;;;;;;;13.48;7.15;;;;;;;19.53;54.58;101685.72;5526438;25;20001;-51
2024/04/12 07:32:52;;;;;;;14.88;8.07;;;;;;;19.30;55.01;101684.72;5526001;25;20069;-49
2024/04/12 07:35:26;;;;;;;12.20;8.00;;;;;;;19.77;53.13;101683.88;5526203;25;20009;-54
2024/04/12 07:37:54;;;;;;;19.58;8.15;;;;;;;19.27;54.16;101685.81;5489499;26;19998;-51
2024/04/12 07:40:34;;;;;;;13.95;7.68;;;;;;;19.30;53.96;101685.59;5488857;26;20070;-51
2024/04/12 07:43:08;;;;;;;12.60;7.07;;;;;;;19.63;52.30;101684.94;5488961;26;19994;-55
2024/04/12 07:45:42;;;;;;;11.57;7.72;;;;;;;19.34;53.07;101687.09;5489159;26;20108;-53
2024/04/12 07:48:25;;;;;;;14.73;6.95;;;;;;;19.57;52.68;101689.94;5489218;26;20075;-51
2024/04/12 07:51:02;;;;;;;13.10;7.00;;;;;;;19.82;52.66;101692.53;5489130;26;20458;-52
2024/04/12 07:53:34;;;;;;;12.45;6.60;;;;;;;19.79;51.50;101691.91;5488885;26;19990;-55
2024/04/12 07:56:14;;;;;;;13.55;7.18;;;;;;;19.84;52.43;101684.28;5492362;26;19990;-55
2024/04/12 07:59:01;;;;;;;13.15;7.35;;;;;;;20.16;50.81;101684.50;5492460;26;19998;-55
2024/04/12 08:01:32;;;;;;;13.32;6.97;;;;;;;20.00;52.24;101680.28;5491884;26;20010;-54
2024/04/12 08:04:05;;;;;;;12.07;6.50;;;;;;;20.42;51.60;101686.03;5492813;26;20449;-56
2024/04/12 08:06:55;;;;;;;16.35;6.55;;;;;;;20.34;50.71;101685.75;5490889;26;19994;-53
2024/04/12 08:09:34;;;;;;;13.35;6.28;;;;;;;20.37;51.11;101682.84;5490738;26;20010;-57
2024/04/12 08:12:13;;;;;;;13.27;6.28;;;;;;;20.74;49.82;101679.91;5488828;26;20398;-51
2024/04/12 08:14:51;;;;;;;14.48;6.72;;;;;;;20.71;49.23;101682.88;5487246;26;19999;-55
2024/04/12 08:17:27;;;;;;;11.75;6.10;;;;;;;20.78;48.61;101681.41;5488170;26;20125;-54
2024/04/12 08:20:12;;;;;;;10.02;6.07;;;;;;;20.81;49.12;101678.44;5488248;26;19998;-56
2024/04/12 08:22:44;;;;;;;9.50;6.20;;;;;;;21.12;49.24;101682.22;5488388;26;20026;-49
2024/04/12 08:25:17;;;;;;;12.70;6.05;;;;;;;20.94;48.10;101673.78;5488393;26;20356;-52
2024/04/12 08:27:54;;;;;;;13.75;6.13;;;;;;;21.25;47.86;101666.69;5488351;26;20010;-54
2024/04/12 08:30:22;;;;;;;12.98;6.68;;;;;;;21.08;48.86;101668.06;5487966;26;20009;-53
2024/04/12 08:32:55;;;;;;;13.55;6.88;;;;;;;21.31;48.16;101659.91;5488161;26;20455;-53
2024/04/12 08:35:26;;;;;;;12.68;5.82;;;;;;;21.52;47.96;101655.41;5488221;26;20022;-55
2024/04/12 08:37:57;;;;;;;13.02;5.68;;;;;;;21.68;48.08;101661.25;5488316;26;20006;-51
2024/04/12 08:40:25;;;;;;;10.90;6.13;;;;;;;21.86;48.06;101663.41;5488052;26;20002;-56
2024/04/12 08:43:08;;;;;;;11.50;6.03;;;;;;;21.92;47.50;101654.72;5502725;26;20013;-50
2024/04/12 08:45:43;;;;;;;11.38;6.10;;;;;;;21.89;47.60;101649.53;5487229;26;20013;-53
2024/04/12 08:48:14;;;;;;;12.57;5.85;;;;;;;22.02;47.32;101655.66;5487989;26;20044;-54
2024/04/12 08:50:48;;;;;;;8.65;6.00;;;;;;;21.56;47.57;101648.72;5487712;26;19998;-57
2024/04/12 08:53:26;;;;;;;10.55;6.20;;;;;;;21.49;46.80;101647.50;5487519;26;19998;-53
2024/04/12 08:55:55;;;;;;;12.77;6.47;;;;;;;21.54;46.70;101649.84;5487889;26;20018;-54
2024/04/12 08:58:26;;;;;;;12.40;5.95;;;;;;;21.51;47.53;101642.78;5487664;26;20013;-55
2024/04/12 09:00:55;;;;;;;12.60;5.75;;;;;;;21.81;47.26;101638.47;5494678;26;20002;-53
2024/04/12 09:03:32;;;;;;;9.50;5.28;;;;;;;22.05;47.08;101647.22;5503500;25;20016;-52
2024/04/12 09:06:12;;;;;;;12.77;6.18;;;;;;;21.98;46.34;101636.03;5511666;25;20002;-52
2024/04/12 09:08:44;;;;;;;13.73;6.00;;;;;;;22.32;46.59;101637.72;5505207;25;20377;-55
2024/04/12 09:11:13;;;;;;;11.82;5.40;;;;;;;22.46;46.03;101634.63;5508200;25;20030;-54
2024/04/12 09:13:46;;;;;;;11.73;6.03;;;;;;;22.50;46.92;101641.53;5518953;25;20085;-52
2024/04/12 09:16:19;;;;;;;11.38;5.65;;;;;;;22.53;45.94;101635.81;5515188;25;20366;-52
2024/04/12 09:18:51;;;;;;;9.75;5.47;;;;;;;22.48;46.10;101629.91;5487576;26;20022;-54
2024/04/12 09:21:35;;;;;;;9.97;5.97;;;;;;;22.61;45.91;101627.84;5487296;26;19995;-54
2024/04/12 09:24:15;;;;;;;11.40;5.53;;;;;;;22.71;46.04;101631.44;5486995;26;20408;-53
2024/04/12 09:26:55;;;;;;;13.35;6.43;;;;;;;22.82;45.69;101623.19;5501835;26;20297;-56
2024/04/12 09:29:28;;;;;;;10.82;5.70;;;;;;;22.84;46.30;101631.22;5512887;25;20001;-54
2024/04/12 09:34:55;;;;;;;10.98;6.03;;;;;;;22.39;46.13;101633.44;5486851;26;19998;-55
2024/04/12 09:37:38;;;;;;;11.70;6.32;;;;;;;22.19;46.18;101632.47;5486790;26;19994;-56
2024/04/12 09:40:24;;;;;;;10.20;5.83;;;;;;;22.60;46.26;101620.66;5487090;26;20395;-51
2024/04/12 09:45:57;;;;;;;11.30;5.28;;;;;;;22.73;46.73;101618.56;5478555;26;20404;-58
2024/04/12 10:39:12;;;;;;;8.00;4.93;;;;;;;23.52;45.72;101587.78;5484887;26;20000;-56
2024/04/12 10:41:45;;;;;;;10.43;5.75;;;;;;;23.43;45.27;101592.22;5486237;26;20008;-59
2024/04/12 10:44:19;;;;;;;13.60;6.50;;;;;;;23.30;44.11;101578.91;5485878;26;20066;-58
2024/04/12 10:46:47;;;;;;;17.02;7.22;;;;;;;23.26;46.18;101584.75;5485979;26;20018;-58
2024/04/12 10:49:21;;;;;;;11.88;5.93;;;;;;;23.48;45.83;101578.19;5486146;26;20101;-56
2024/04/12 10:51:48;;;;;;;;;;;;;;;23.68;47.02;101572.59;5486797;26;20034;-55
2024/04/12 10:54:23;;;;;;;9.02;5.18;;;;;;;23.72;44.86;101573.16;5485940;26;20055;-57
2024/04/12 10:56:53;;;;;;;10.68;6.20;;;;;;;23.65;43.74;101574.78;5486138;26;20065;-57
2024/04/12 10:59:34;;;;;;;12.18;4.70;;;;;;;23.79;45.45;101574.31;5485549;26;19998;-57
2024/04/12 11:02:02;;;;;;;9.68;4.35;;;;;;;23.91;45.60;101575.84;5485473;26;20034;-55
2024/04/12 11:05:05;;;;;;;10.68;5.35;;;;;;;23.95;44.64;101571.84;5485333;26;20010;-55
2024/04/12 11:07:22;;;;;;;11.20;5.55;;;;;;;23.93;43.51;101576.59;5485872;26;19998;-57
2024/04/12 11:09:57;;;;;;;9.00;5.80;;;;;;;23.89;43.90;101577.88;5485881;26;20022;-57
2024/04/12 11:12:28;;;;;;;11.82;6.03;;;;;;;23.80;43.90;101567.84;5486200;26;20455;-53
2024/04/12 11:15:13;;;;;;;10.18;5.75;;;;;;;23.68;44.15;101558.13;5485237;26;19998;-54
2024/04/12 11:31:47;;;;;;;10.20;5.38;;;;;;;23.10;45.87;101539.06;5352696;26;20051;-56
2024/04/12 11:34:20;;;;;;;12.52;4.78;;;;;;;23.38;46.58;101530.03;5484495;26;20008;-55
2024/04/12 11:37:05;;;;;;;7.43;5.40;;;;;;;23.48;45.23;101534.63;5485013;26;19998;-58
2024/04/12 11:39:35;;;;;;;10.07;5.22;;;;;;;23.55;45.49;101531.19;5485016;26;19998;-58
2024/04/12 11:42:10;;;;;;;11.77;6.18;;;;;;;23.52;45.28;101531.44;5485065;26;20022;-57
2024/04/12 11:44:44;;;;;;;13.43;6.65;;;;;;;23.51;44.43;101521.56;5484280;26;20071;-58
2024/04/12 11:47:18;;;;;;;13.55;6.70;;;;;;;23.51;46.16;101524.28;5483991;26;20432;-55
2024/04/12 11:49:46;;;;;;;16.40;6.45;;;;;;;23.50;45.46;101527.16;5485116;26;20459;-57
2024/04/12 11:52:18;;;;;;;8.45;4.95;;;;;;;23.68;46.26;101520.84;5488212;26;19990;-58
2024/04/12 11:54:51;;;;;;;;;;;;;;;23.79;45.64;101514.38;5488507;26;19994;-58
2024/04/12 11:57:23;;;;;;;8.68;5.18;;;;;;;23.89;45.59;101507.03;5487450;26;20373;-57
2024/04/12 11:59:54;;;;;;;8.40;5.17;;;;;;;23.90;45.72;101503.28;5487811;26;19990;-55
2024/04/12 12:02:27;;;;;;;8.73;5.00;;;;;;;24.00;45.96;101497.81;5487857;26;20005;-58
2024/04/12 12:04:56;;;;;;;11.00;6.90;;;;;;;23.77;45.20;101494.59;5488135;26;20323;-58
2024/04/12 12:07:28;;;;;;;10.15;5.72;;;;;;;23.81;45.79;101493.28;5487477;26;19998;-57
2024/04/12 12:09:55;;;;;;;10.00;5.85;;;;;;;23.87;45.74;101487.25;5488014;26;19998;-57
2024/04/12 12:12:29;;;;;;;8.38;5.75;;;;;;;23.99;45.08;101480.59;5488015;26;20034;-56
2024/04/12 12:14:58;;;;;;;11.20;5.80;;;;;;;24.08;45.61;101483.44;5488409;26;20009;-57
2024/04/12 12:17:31;;;;;;;9.90;5.35;;;;;;;24.14;45.67;101472.81;5488100;26;19998;-57
2024/04/12 12:19:58;;;;;;;9.77;5.60;;;;;;;24.14;45.18;101472.81;5490722;26;20066;-55
2024/04/12 12:22:30;;;;;;;8.85;5.57;;;;;;;24.16;44.92;101464.47;5491208;26;20006;-57
2024/04/12 12:24:58;;;;;;;11.95;6.68;;;;;;;24.00;44.74;101465.09;5489367;26;20030;-57
2024/04/12 12:27:34;;;;;;;;;;;;;;;24.04;45.15;101458.38;5489039;26;19998;-55
2024/04/12 12:30:04;;;;;;;10.40;6.20;;;;;;;24.14;45.17;101452.88;5489473;26;20059;-56
2024/04/12 12:32:44;;;;;;;10.52;6.20;;;;;;;24.18;44.67;101449.66;5489527;26;20026;-57
2024/04/12 12:35:18;;;;;;;10.57;5.53;;;;;;;24.19;44.66;101447.78;5489096;26;19998;-55
2024/04/12 12:37:50;;;;;;;9.75;5.07;;;;;;;24.22;44.85;101447.47;5488720;26;20038;-58
2024/04/12 12:40:20;;;;;;;14.27;7.32;;;;;;;23.70;43.71;101438.97;5488181;26;20316;-58
2024/04/12 12:42:51;;;;;;;16.58;7.35;;;;;;;23.26;44.00;101430.47;5487846;26;20062;-54
2024/04/12 12:45:20;;;;;;;11.82;6.70;;;;;;;23.41;43.26;101431.72;5487389;26;19994;-56
2024/04/12 12:47:53;;;;;;;10.07;6.45;;;;;;;23.39;44.32;101422.00;5487482;26;20010;-59
2024/04/12 12:50:22;;;;;;;9.88;5.13;;;;;;;23.63;45.91;101418.78;5488175;26;20018;-58
2024/04/12 12:52:53;;;;;;;9.07;5.47;;;;;;;23.78;44.86;101422.75;5487715;26;20487;-58
2024/04/12 12:55:23;;;;;;;10.73;5.88;;;;;;;23.94;45.12;101406.63;5487520;26;20427;-57
2024/04/12 12:58:09;;;;;;;10.63;5.90;;;;;;;24.03;44.05;101403.97;5487251;26;19998;-55